Time;durP1;ratioP1;P1;durP2;ratioP2;P2;SDS_P1;SDS_P2;PMS_P1;PMS_P2;Temp;Humidity;BMP_temperature;BMP_pressure;BME280_temperature;BME280_humidity;BME280_pressure;Samples;Min_cycle;Max_cycle;Signal;HPM_P1;HPM_P2
2022/11/14 00:00:33;;;;;;;18.57;7.70;;;;;;;-145.69;100.00;52699.88;5093837;28;20225;-80
2022/11/14 00:03:01;;;;;;;20.77;7.70;;;;;;;-145.69;100.00;52715.72;5093728;28;20198;-80
2022/11/14 00:05:27;;;;;;;20.83;8.07;;;;;;;-145.69;100.00;52672.13;5104105;28;20201;-80
2022/11/14 00:07:54;;;;;;;18.67;8.33;;;;;;;-145.69;100.00;52697.88;5113899;28;20201;-79
2022/11/14 00:10:22;;;;;;;22.37;8.97;;;;;;;-145.69;100.00;52709.78;5114367;28;20674;-80
2022/11/14 00:12:49;;;;;;;16.97;7.70;;;;;;;-145.69;100.00;52749.38;5113253;28;20205;-79
2022/11/14 00:15:16;;;;;;;22.07;9.67;;;;;;;-145.69;100.00;52686.00;5114117;28;20279;-80
2022/11/14 00:17:43;;;;;;;19.40;8.60;;;;;;;-145.69;100.00;52701.84;5113599;28;20193;-79
2022/11/14 00:20:12;;;;;;;17.37;8.20;;;;;;;-145.69;100.00;52703.81;5113672;28;20315;-80
2022/11/14 00:22:38;;;;;;;17.43;8.23;;;;;;;-145.69;100.00;52687.97;5113651;28;20284;-80
2022/11/14 00:25:05;;;;;;;21.87;8.40;;;;;;;-145.69;100.00;52731.56;5113748;28;20208;-80
2022/11/14 00:27:33;;;;;;;23.63;8.37;;;;;;;-145.69;100.00;52705.81;5113849;28;20204;-79
2022/11/14 00:30:00;;;;;;;17.87;8.33;;;;;;;-145.69;100.00;52703.81;5113843;28;20244;-79
2022/11/14 00:32:26;;;;;;;19.33;8.50;;;;;;;-145.69;100.00;52701.84;5113462;28;20292;-79
2022/11/14 00:34:53;;;;;;;20.73;8.97;;;;;;;-145.69;100.00;52670.16;5113497;28;20661;-79
2022/11/14 00:37:19;;;;;;;17.00;8.30;;;;;;;-145.69;100.00;52699.88;5113586;28;20202;-79
2022/11/14 00:39:46;;;;;;;18.10;8.23;;;;;;;-145.69;100.00;52693.94;5113592;28;20555;-79
2022/11/14 00:42:15;;;;;;;18.13;8.13;;;;;;;-145.69;100.00;52715.72;5113738;28;20228;-79
2022/11/14 00:44:43;;;;;;;18.13;7.60;;;;;;;-145.69;100.00;52687.97;5113677;28;20280;-79
2022/11/14 00:47:09;;;;;;;15.97;7.60;;;;;;;-145.69;100.00;52717.69;5113211;28;20198;-78
2022/11/14 00:49:36;;;;;;;14.60;7.40;;;;;;;-145.69;100.00;52697.88;5113044;28;20655;-79
2022/11/14 00:52:05;;;;;;;20.13;8.13;;;;;;;-145.69;100.00;52717.69;5113401;28;20197;-79
2022/11/14 00:54:32;;;;;;;17.47;7.87;;;;;;;-145.69;100.00;52701.84;5113601;27;20204;-79
2022/11/14 00:56:58;;;;;;;15.73;7.40;;;;;;;-145.69;100.00;52705.81;5113356;28;20205;-79
2022/11/14 00:59:25;;;;;;;16.43;7.40;;;;;;;-145.69;100.00;52719.66;5113119;28;20211;-79
2022/11/14 01:01:54;;;;;;;19.63;8.07;;;;;;;-145.69;100.00;52682.03;5106998;28;20240;-79
2022/11/14 01:04:30;;;;;;;16.13;7.70;;;;;;;-145.69;100.00;52725.63;5092785;28;20279;-79
2022/11/14 01:06:57;;;;;;;17.17;7.80;;;;;;;-145.69;100.00;52709.78;5092983;28;20212;-79
2022/11/14 01:09:23;;;;;;;16.40;7.63;;;;;;;-145.69;100.00;52709.78;5092908;28;20206;-79
2022/11/14 01:11:50;;;;;;;19.07;7.50;;;;;;;-145.69;100.00;52721.66;5092994;28;20202;-80
2022/11/14 01:14:16;;;;;;;13.33;7.17;;;;;;;-145.69;100.00;52713.72;5095275;28;20224;-79
2022/11/14 01:16:45;;;;;;;19.63;7.17;;;;;;;-145.69;100.00;52707.78;5106086;27;20188;-79
2022/11/14 01:19:13;;;;;;;16.07;7.60;;;;;;;-145.69;100.00;52727.59;5125960;27;20563;-79
2022/11/14 01:21:40;;;;;;;15.03;6.87;;;;;;;-145.69;100.00;52709.78;5115189;28;20278;-79
2022/11/14 01:24:07;;;;;;;17.53;7.73;;;;;;;-145.69;100.00;52678.09;5117294;28;20201;-79
2022/11/14 01:26:34;;;;;;;15.60;7.40;;;;;;;-145.69;100.00;52725.63;5117405;28;20552;-79
2022/11/14 01:29:00;;;;;;;12.30;6.57;;;;;;;-145.69;100.00;52709.78;5117466;28;20228;-79
2022/11/14 01:31:27;;;;;;;15.60;7.60;;;;;;;-145.69;100.00;52686.00;5116885;28;20283;-79
2022/11/14 01:33:54;;;;;;;16.77;7.33;;;;;;;-145.69;100.00;52713.72;5117063;28;20197;-79
2022/11/14 01:36:22;;;;;;;14.73;7.50;;;;;;;-145.69;100.00;52729.56;5116824;28;20236;-79
2022/11/14 01:38:52;;;;;;;14.23;7.37;;;;;;;-145.69;100.00;52707.78;5116730;28;20200;-79
2022/11/14 01:41:18;;;;;;;12.73;6.80;;;;;;;-145.69;100.00;52723.63;5116962;28;20236;-79
2022/11/14 01:43:45;;;;;;;16.63;7.73;;;;;;;-145.69;100.00;52703.81;5116946;28;20207;-80
2022/11/14 01:46:15;;;;;;;15.50;7.00;;;;;;;-145.69;100.00;52717.69;5116776;28;20201;-80
2022/11/14 01:48:45;;;;;;;13.30;6.83;;;;;;;-145.69;100.00;52703.81;5116407;28;20201;-79
2022/11/14 01:51:21;;;;;;;15.83;7.67;;;;;;;-145.69;100.00;52761.25;5112823;28;20194;-80
2022/11/14 01:53:54;;;;;;;13.80;7.10;;;;;;;-145.69;100.00;52705.81;5116306;28;20200;-80
2022/11/14 01:56:26;;;;;;;16.67;6.83;;;;;;;-145.69;100.00;52721.66;5116426;27;20200;-80
2022/11/14 01:59:00;;;;;;;15.97;7.40;;;;;;;-145.69;100.00;52727.59;5116598;28;20555;-79
2022/11/14 02:01:28;;;;;;;18.80;7.90;;;;;;;-145.69;100.00;52701.84;5116415;28;20691;-79
2022/11/14 02:03:56;;;;;;;17.30;7.47;;;;;;;-145.69;100.00;52686.00;5116568;28;20205;-79
2022/11/14 02:06:27;;;;;;;17.07;7.57;;;;;;;-145.69;100.00;52705.81;5116574;27;20556;-80
2022/11/14 02:08:57;;;;;;;17.63;6.90;;;;;;;-145.69;100.00;52717.69;5116386;28;20219;-79
2022/11/14 02:11:24;;;;;;;19.10;8.20;;;;;;;-145.69;100.00;52727.59;5116515;28;20288;-79
2022/11/14 02:13:51;;;;;;;18.57;7.90;;;;;;;-145.69;100.00;52644.41;5116194;28;20198;-79
2022/11/14 02:16:17;;;;;;;16.47;7.10;;;;;;;-145.69;100.00;52693.94;5116272;28;20796;-80
2022/11/14 02:18:44;;;;;;;15.03;7.10;;;;;;;-145.69;100.00;52705.81;5116122;28;20651;-80
2022/11/14 02:21:12;;;;;;;15.87;7.60;;;;;;;-145.69;100.00;52693.94;5115984;28;20225;-79
2022/11/14 02:23:38;;;;;;;16.13;7.10;;;;;;;-145.69;100.00;52687.97;5116155;28;20202;-80
2022/11/14 02:26:05;;;;;;;14.67;6.90;;;;;;;-145.69;100.00;52723.63;5114687;28;20619;-80
2022/11/14 02:28:31;;;;;;;15.07;6.43;;;;;;;-145.69;100.00;52717.69;5116167;28;20284;-80
2022/11/14 02:30:58;;;;;;;12.17;6.23;;;;;;;-145.69;100.00;52729.56;5115786;28;20207;-80
2022/11/14 02:33:24;;;;;;;17.58;8.60;;;;;;;-145.69;100.00;52711.75;5114989;28;20438;-80
2022/11/14 02:36:04;;;;;;;13.63;6.70;;;;;;;-145.69;100.00;52749.38;5115579;28;20239;-79
2022/11/14 02:38:32;;;;;;;16.53;6.30;;;;;;;-145.69;100.00;52697.88;5115945;28;20723;-79
2022/11/14 02:40:59;;;;;;;17.50;7.07;;;;;;;-145.69;100.00;52709.78;5115814;28;20587;-80
2022/11/14 02:43:29;;;;;;;15.57;6.80;;;;;;;-145.69;100.00;52733.53;5115934;28;20602;-80
2022/11/14 02:45:58;;;;;;;14.50;6.23;;;;;;;-145.69;100.00;52711.75;5115835;28;20197;-80
2022/11/14 02:48:25;;;;;;;15.63;6.63;;;;;;;-145.69;100.00;52703.81;5115444;28;20204;-80
2022/11/14 02:50:51;;;;;;;15.90;6.60;;;;;;;-145.69;100.00;52697.88;5115477;28;20743;-79
2022/11/14 02:53:18;;;;;;;12.67;6.33;;;;;;;-145.69;100.00;52719.66;5115279;28;20233;-80
2022/11/14 02:55:46;;;;;;;14.43;6.87;;;;;;;-145.69;100.00;52713.72;5115611;28;20198;-80
2022/11/14 02:58:12;;;;;;;12.80;6.30;;;;;;;-145.69;100.00;52699.88;5115111;28;20201;-80
2022/11/14 03:00:42;;;;;;;12.63;5.73;;;;;;;-145.69;100.00;52709.78;5115416;28;20201;-80
2022/11/14 03:03:10;;;;;;;11.03;5.30;;;;;;;-145.69;100.00;52687.97;5115311;28;20197;-80
2022/11/14 03:05:36;;;;;;;10.30;5.40;;;;;;;-145.69;100.00;52717.69;5115180;28;20194;-79
2022/11/14 03:08:03;;;;;;;8.73;5.07;;;;;;;-145.69;100.00;52713.72;5115285;28;20193;-79
2022/11/14 03:10:32;;;;;;;11.60;5.63;;;;;;;-145.69;100.00;52705.81;5115231;28;20201;-80
2022/11/14 03:13:00;;;;;;;11.63;5.13;;;;;;;-145.69;100.00;52725.63;5115341;28;20197;-79
2022/11/14 03:15:27;;;;;;;9.20;5.03;;;;;;;-145.69;100.00;52721.66;5115157;28;20282;-80
2022/11/14 03:17:57;;;;;;;15.43;6.03;;;;;;;-145.69;100.00;52709.78;5115099;28;20201;-79
2022/11/14 03:20:27;;;;;;;11.90;5.67;;;;;;;-145.69;100.00;52705.81;5115471;28;20197;-80
2022/11/14 03:22:53;;;;;;;9.57;5.30;;;;;;;-145.69;100.00;52705.81;5114827;28;20221;-80
2022/11/14 03:25:20;;;;;;;10.10;5.47;;;;;;;-145.69;100.00;52705.81;5114632;28;20201;-80
2022/11/14 03:27:49;;;;;;;10.27;5.10;;;;;;;-145.69;100.00;52715.72;5114602;28;20620;-79
2022/11/14 03:30:18;;;;;;;10.33;5.03;;;;;;;-145.69;100.00;52763.25;5114710;28;20209;-79
2022/11/14 03:32:44;;;;;;;12.57;5.77;;;;;;;-145.69;100.00;52697.88;5114787;28;20201;-80
2022/11/14 03:35:11;;;;;;;9.70;5.37;;;;;;;-145.69;100.00;52697.88;5114659;28;20231;-79
2022/11/14 03:37:38;;;;;;;10.43;5.40;;;;;;;-145.69;100.00;52682.03;5114390;28;20280;-79
2022/11/14 03:40:05;;;;;;;10.17;5.80;;;;;;;-145.69;100.00;52678.09;5114755;28;20204;-79
2022/11/14 03:42:33;;;;;;;9.73;4.70;;;;;;;-145.69;100.00;52684.03;5114207;28;20697;-79
2022/11/14 03:45:02;;;;;;;9.90;5.27;;;;;;;-145.69;100.00;52697.88;5114877;28;20216;-80
2022/11/14 03:47:30;;;;;;;10.00;4.97;;;;;;;-145.69;100.00;52701.84;5114681;28;20202;-79
2022/11/14 03:49:56;;;;;;;7.23;4.27;;;;;;;-145.69;100.00;52733.53;5114552;28;20205;-79
2022/11/14 03:52:24;;;;;;;10.43;5.20;;;;;;;-145.69;100.00;52701.84;5114300;28;20220;-79
2022/11/14 03:54:54;;;;;;;9.33;4.83;;;;;;;-145.69;100.00;52697.88;5112280;28;20283;-78
2022/11/14 03:57:20;;;;;;;10.93;5.73;;;;;;;-145.69;100.00;52674.13;5112164;28;20280;-79
2022/11/14 03:59:47;;;;;;;12.80;6.00;;;;;;;-145.69;100.00;52695.91;5113948;28;20208;-79
2022/11/14 04:02:13;;;;;;;10.87;5.10;;;;;;;-145.69;100.00;52693.94;5113960;28;20220;-79
2022/11/14 04:04:41;;;;;;;9.33;4.97;;;;;;;-145.69;100.00;52699.88;5114159;28;20194;-79
2022/11/14 04:07:11;;;;;;;10.43;5.47;;;;;;;-145.69;100.00;52697.88;5113868;28;20675;-79
2022/11/14 04:09:37;;;;;;;7.23;4.23;;;;;;;-145.69;100.00;52713.72;5113624;28;20205;-78
2022/11/14 04:12:05;;;;;;;8.60;4.33;;;;;;;-145.69;100.00;52691.94;5114266;28;20203;-79
2022/11/14 04:14:32;;;;;;;8.43;3.93;;;;;;;-145.69;100.00;52686.00;5114261;28;20198;-79
2022/11/14 04:16:58;;;;;;;9.40;4.40;;;;;;;-145.69;100.00;52717.69;5114007;28;20200;-79
2022/11/14 04:19:25;;;;;;;8.00;4.63;;;;;;;-145.69;100.00;52674.13;5114022;28;20201;-80
2022/11/14 04:21:52;;;;;;;9.73;4.37;;;;;;;-145.69;100.00;52689.97;5113623;28;20225;-79
2022/11/14 04:24:19;;;;;;;13.23;4.23;;;;;;;-145.69;100.00;52695.91;5113748;28;20209;-79
2022/11/14 04:26:46;;;;;;;8.07;4.30;;;;;;;-145.69;100.00;52691.94;5113506;28;20201;-79
2022/11/14 04:29:12;;;;;;;7.10;4.40;;;;;;;-145.69;100.00;52687.97;5113951;28;20208;-78
2022/11/14 04:31:39;;;;;;;7.90;4.60;;;;;;;-145.69;100.00;52662.22;5113769;28;20258;-79
2022/11/14 04:34:05;;;;;;;9.70;4.57;;;;;;;-145.69;100.00;52703.81;5114806;27;20193;-78
2022/11/14 04:36:32;;;;;;;7.77;4.27;;;;;;;-145.69;100.00;52697.88;5113452;28;20687;-79
2022/11/14 04:39:03;;;;;;;7.10;4.10;;;;;;;-145.69;100.00;52678.09;5113225;28;20210;-79
2022/11/14 04:41:30;;;;;;;10.20;4.17;;;;;;;-145.69;100.00;52678.09;5113746;28;20583;-79
2022/11/14 04:43:56;;;;;;;7.13;3.83;;;;;;;-145.69;100.00;52684.03;5113398;28;20204;-79
2022/11/14 04:46:23;;;;;;;6.47;4.07;;;;;;;-145.69;100.00;52682.03;5113574;28;20202;-79
2022/11/14 04:48:49;;;;;;;9.57;4.40;;;;;;;-145.69;100.00;52672.13;5112645;28;20300;-79
2022/11/14 04:51:16;;;;;;;9.27;4.50;;;;;;;-145.69;100.00;52662.22;5113424;28;20282;-79
2022/11/14 04:53:42;;;;;;;8.43;4.47;;;;;;;-145.69;100.00;52672.13;5112734;28;20193;-78
2022/11/14 04:56:10;;;;;;;9.50;4.37;;;;;;;-145.69;100.00;52678.09;5113504;28;20202;-79
2022/11/14 04:58:37;;;;;;;7.23;4.10;;;;;;;-145.69;100.00;52672.13;5113492;28;20209;-79
2022/11/14 05:01:07;;;;;;;8.30;4.47;;;;;;;-145.69;100.00;52682.03;5113210;28;20651;-79
2022/11/14 05:03:34;;;;;;;8.20;4.37;;;;;;;-145.69;100.00;52678.09;5112938;28;20205;-79
2022/11/14 05:06:00;;;;;;;7.97;4.30;;;;;;;-145.69;100.00;52680.06;5112977;28;20669;-79
2022/11/14 05:08:27;;;;;;;8.20;4.30;;;;;;;-145.69;100.00;52701.84;5113433;28;20209;-78
2022/11/14 05:10:53;;;;;;;6.90;4.00;;;;;;;-145.69;100.00;52668.19;5112792;28;20197;-78
2022/11/14 05:13:21;;;;;;;11.17;5.23;;;;;;;-145.69;100.00;52668.19;5112937;28;20205;-78
2022/11/14 05:15:48;;;;;;;7.20;4.03;;;;;;;-145.69;100.00;52666.19;5113270;28;20193;-79
2022/11/14 05:18:14;;;;;;;10.43;5.03;;;;;;;-145.69;100.00;52684.03;5113186;28;20200;-78
2022/11/14 05:20:41;;;;;;;10.47;4.40;;;;;;;-145.69;100.00;52687.97;5112380;28;20204;-78
2022/11/14 05:23:18;;;;;;;9.73;5.00;;;;;;;-145.69;100.00;52676.09;5113221;28;20225;-79
2022/11/14 05:25:44;;;;;;;10.17;5.00;;;;;;;-145.69;100.00;52684.03;5113354;28;20201;-79
2022/11/14 05:28:11;;;;;;;9.83;5.27;;;;;;;-145.69;100.00;52654.31;5112843;28;20561;-79
2022/11/14 05:30:39;;;;;;;11.57;5.73;;;;;;;-145.69;100.00;52666.19;5112916;28;20203;-79
2022/11/14 05:33:05;;;;;;;16.10;6.73;;;;;;;-145.69;100.00;52674.13;5112702;28;20664;-79
2022/11/14 05:35:32;;;;;;;33.17;10.07;;;;;;;-145.69;100.00;52682.03;5112826;28;20229;-79
2022/11/14 05:38:06;;;;;;;18.00;7.73;;;;;;;-145.69;100.00;52676.09;5113217;28;20201;-79
2022/11/14 05:40:33;;;;;;;16.00;7.13;;;;;;;-145.69;100.00;52630.53;5113047;28;20196;-79
2022/11/14 05:42:59;;;;;;;20.27;8.40;;;;;;;-145.69;100.00;52666.19;5112794;28;20706;-79
2022/11/14 05:45:26;;;;;;;16.60;7.77;;;;;;;-145.69;100.00;52674.13;5112919;28;20197;-78
2022/11/14 05:47:54;;;;;;;14.37;7.30;;;;;;;-145.69;100.00;52624.59;5112247;28;20288;-78
2022/11/14 05:50:21;;;;;;;15.37;7.10;;;;;;;-145.69;100.00;52642.44;5113078;28;20199;-79
2022/11/14 05:52:47;;;;;;;13.90;7.10;;;;;;;-145.69;100.00;52646.41;5112887;27;20663;-79
2022/11/14 05:55:14;;;;;;;10.47;6.30;;;;;;;-145.69;100.00;52642.44;5112775;28;20220;-79
2022/11/14 05:57:41;;;;;;;15.47;6.60;;;;;;;-145.69;100.00;52606.78;5099347;28;20330;-78
2022/11/14 06:00:09;;;;;;;11.63;5.83;;;;;;;-145.69;100.00;52616.69;5094399;28;20568;-78
2022/11/14 06:02:35;;;;;;;8.30;5.03;;;;;;;-145.69;100.00;52622.63;5096564;28;20279;-78
2022/11/14 06:05:03;;;;;;;8.80;4.40;;;;;;;-145.69;100.00;52626.59;5102776;28;20186;-78
2022/11/14 06:07:30;;;;;;;9.77;4.13;;;;;;;-145.69;100.00;52624.59;5116612;28;20193;-79
2022/11/14 06:09:56;;;;;;;8.37;3.37;;;;;;;-145.69;100.00;52634.50;5116858;28;20201;-81
2022/11/14 06:12:23;;;;;;;6.43;3.67;;;;;;;-145.69;100.00;52642.44;5116878;28;20201;-81
2022/11/14 06:14:49;;;;;;;4.33;2.20;;;;;;;-145.69;100.00;52604.81;5115882;28;20563;-79
2022/11/14 06:17:16;;;;;;;12.23;3.40;;;;;;;-145.69;100.00;52614.72;5116298;28;20652;-79
2022/11/14 06:19:42;;;;;;;8.00;3.00;;;;;;;-145.69;100.00;52642.44;5116290;28;20224;-79
2022/11/14 06:22:10;;;;;;;8.27;3.10;;;;;;;-145.69;100.00;52642.44;5115910;28;20222;-78
2022/11/14 06:24:37;;;;;;;4.27;2.60;;;;;;;-145.69;100.00;52583.00;5115717;28;20262;-78
2022/11/14 06:27:03;;;;;;;4.90;2.90;;;;;;;-145.69;100.00;52624.59;5116044;28;20211;-78
2022/11/14 06:29:30;;;;;;;5.80;2.80;;;;;;;-145.69;100.00;52624.59;5116079;28;20205;-78
2022/11/14 06:31:56;;;;;;;5.50;2.57;;;;;;;-145.69;100.00;52606.78;5115812;28;20201;-78
2022/11/14 06:34:23;;;;;;;3.93;2.30;;;;;;;-145.69;100.00;52626.59;5115591;28;20208;-78
2022/11/14 06:36:49;;;;;;;4.93;2.00;;;;;;;-145.69;100.00;52630.53;5116000;28;20678;-79
2022/11/14 06:39:17;;;;;;;3.23;1.80;;;;;;;-145.69;100.00;52654.31;5116027;28;20204;-79
2022/11/14 06:41:44;;;;;;;3.37;1.70;;;;;;;-145.69;100.00;52590.94;5115268;28;20205;-78
2022/11/14 06:44:10;;;;;;;4.03;2.20;;;;;;;-145.69;100.00;52610.75;5115789;28;20200;-78
2022/11/14 06:46:37;;;;;;;3.33;2.00;;;;;;;-145.69;100.00;52640.44;5115644;28;20207;-78
2022/11/14 06:49:03;;;;;;;3.43;1.63;;;;;;;-145.69;100.00;52606.78;5115692;28;20202;-78
2022/11/14 06:51:30;;;;;;;6.07;2.00;;;;;;;-145.69;100.00;52614.72;5115663;28;20674;-78
2022/11/14 06:53:58;;;;;;;3.03;1.80;;;;;;;-145.69;100.00;52579.06;5115383;28;20450;-79
2022/11/14 06:56:25;;;;;;;3.37;1.80;;;;;;;-145.69;100.00;52590.94;5115439;28;20197;-78
2022/11/14 06:58:52;;;;;;;3.20;1.67;;;;;;;-145.69;100.00;52626.59;5115634;28;20199;-78
2022/11/14 07:01:20;;;;;;;6.77;2.00;;;;;;;-145.69;100.00;52622.63;5115295;28;20202;-79
2022/11/14 07:03:48;;;;;;;4.33;1.80;;;;;;;-145.69;100.00;52640.44;5115135;28;20850;-78
2022/11/14 07:06:16;;;;;;;2.60;1.40;;;;;;;-145.69;100.00;52610.75;5115220;28;20197;-78
2022/11/14 07:08:43;;;;;;;3.17;1.60;;;;;;;-145.69;100.00;52636.50;5115305;28;20280;-77
2022/11/14 07:11:11;;;;;;;4.40;2.17;;;;;;;-145.69;100.00;52606.78;5114256;28;20203;-78
2022/11/14 07:13:39;;;;;;;3.33;1.80;;;;;;;-145.69;100.00;52626.59;5115458;28;20205;-77
2022/11/14 07:16:06;;;;;;;2.90;1.67;;;;;;;-145.69;100.00;52640.44;5115173;28;20200;-78
2022/11/14 07:18:33;;;;;;;4.30;1.70;;;;;;;-145.69;100.00;52630.53;5114727;28;20233;-78
2022/11/14 07:21:02;;;;;;;3.63;1.80;;;;;;;-145.69;100.00;52614.72;5115158;28;20198;-79
2022/11/14 07:23:29;;;;;;;3.03;2.07;;;;;;;-145.69;100.00;52604.81;5114577;28;20269;-78
2022/11/14 07:25:55;;;;;;;6.80;3.50;;;;;;;-145.69;100.00;52634.50;5114843;28;20205;-78
2022/11/14 07:28:22;;;;;;;3.87;2.17;;;;;;;-145.69;100.00;52636.50;5114793;28;20193;-78
2022/11/14 07:30:50;;;;;;;3.63;2.03;;;;;;;-145.69;100.00;52656.28;5114808;28;20208;-78
2022/11/14 07:33:16;;;;;;;4.90;1.60;;;;;;;-145.69;100.00;52614.72;5114926;28;20208;-78
2022/11/14 07:35:43;;;;;;;4.47;2.00;;;;;;;-145.69;100.00;52594.91;5114060;28;20228;-78
2022/11/14 07:38:09;;;;;;;2.47;1.80;;;;;;;-145.69;100.00;52626.59;5114636;28;20285;-79
2022/11/14 07:40:36;;;;;;;1.80;1.40;;;;;;;-145.69;100.00;52606.78;5114869;28;20321;-78
2022/11/14 07:43:03;;;;;;;2.50;1.70;;;;;;;-145.69;100.00;52610.75;5114736;28;20232;-79
2022/11/14 07:45:30;;;;;;;3.13;2.03;;;;;;;-145.69;100.00;52636.50;5114388;28;20656;-78
2022/11/14 07:47:59;;;;;;;5.10;2.10;;;;;;;-145.69;100.00;52626.59;5114393;28;20552;-79
2022/11/14 07:50:25;;;;;;;2.40;1.80;;;;;;;-145.69;100.00;52630.53;5132747;27;20220;-78
2022/11/14 07:52:52;;;;;;;3.30;1.70;;;;;;;-145.69;100.00;52626.59;5134866;27;20205;-79
2022/11/14 07:55:19;;;;;;;3.23;1.60;;;;;;;-145.69;100.00;52654.31;5134888;27;20196;-79
2022/11/14 07:57:49;;;;;;;3.50;1.57;;;;;;;-145.69;100.00;52618.66;5135094;27;20205;-79
2022/11/14 08:00:16;;;;;;;2.90;1.77;;;;;;;-145.69;100.00;52598.84;5135149;27;20200;-78
2022/11/14 08:02:43;;;;;;;2.90;1.73;;;;;;;-145.69;100.00;52628.56;5120692;27;20625;-79
2022/11/14 08:05:11;;;;;;;3.30;1.87;;;;;;;-145.69;100.00;52598.84;5114282;28;20198;-80
2022/11/14 08:07:37;;;;;;;3.57;1.67;;;;;;;-145.69;100.00;52583.00;5114474;28;20210;-81
2022/11/14 08:10:05;;;;;;;2.93;1.80;;;;;;;-145.69;100.00;52650.34;5114401;28;20210;-80
2022/11/14 08:12:31;;;;;;;3.43;1.70;;;;;;;-145.69;100.00;52634.50;5113979;28;20201;-80
2022/11/14 08:14:59;;;;;;;2.70;1.57;;;;;;;-145.69;100.00;52626.59;5114200;28;20197;-79
2022/11/14 08:17:25;;;;;;;3.37;1.70;;;;;;;-145.69;100.00;52650.34;5114140;28;20244;-80
2022/11/14 08:19:52;;;;;;;2.10;1.40;;;;;;;-145.69;100.00;52638.47;5113948;28;20197;-79
2022/11/14 08:22:20;;;;;;;4.23;1.40;;;;;;;-145.69;100.00;52630.53;5114092;28;20655;-80
2022/11/14 08:24:46;;;;;;;3.47;1.60;;;;;;;-145.69;100.00;52644.41;5114075;28;20203;-79
2022/11/14 08:27:13;;;;;;;2.40;1.70;;;;;;;-145.69;100.00;52586.97;5113973;28;20296;-80
2022/11/14 08:29:39;;;;;;;2.10;1.77;;;;;;;-145.69;100.00;52622.63;5113593;28;20548;-80
2022/11/14 08:32:06;;;;;;;3.00;1.50;;;;;;;-145.69;100.00;52630.53;5113669;28;20197;-79
2022/11/14 08:34:43;;;;;;;2.93;1.90;;;;;;;-145.69;100.00;52648.38;5113618;28;20240;-79
2022/11/14 08:37:09;;;;;;;4.07;1.83;;;;;;;-145.69;100.00;52638.47;5113958;27;20205;-79
2022/11/14 08:39:37;;;;;;;3.10;1.73;;;;;;;-145.69;100.00;52598.84;5113709;28;20314;-79
2022/11/14 08:42:05;;;;;;;2.87;1.63;;;;;;;-145.69;100.00;52640.44;5113640;28;20193;-78
2022/11/14 08:44:31;;;;;;;2.87;1.97;;;;;;;-145.69;100.00;52638.47;5113446;28;20694;-78
2022/11/14 08:46:59;;;;;;;4.47;1.90;;;;;;;-145.69;100.00;52628.56;5113427;28;20575;-79
2022/11/14 08:49:25;;;;;;;2.60;1.77;;;;;;;-145.69;100.00;52614.72;5113457;28;20597;-79
2022/11/14 08:51:52;;;;;;;2.33;1.63;;;;;;;-145.69;100.00;52650.34;5113622;28;20205;-78
2022/11/14 08:54:19;;;;;;;2.17;1.70;;;;;;;-145.69;100.00;52634.50;5113540;28;20209;-79
2022/11/14 08:56:47;;;;;;;3.00;1.73;;;;;;;-145.69;100.00;52640.44;5113597;28;20205;-79
2022/11/14 08:59:13;;;;;;;2.70;1.60;;;;;;;-145.69;100.00;52618.66;5113382;28;20197;-77
2022/11/14 09:01:40;;;;;;;2.80;1.40;;;;;;;-145.69;100.00;52630.53;5113266;28;20197;-77
2022/11/14 09:04:07;;;;;;;2.33;1.50;;;;;;;-145.69;100.00;52650.34;5113446;28;20229;-79
2022/11/14 09:06:33;;;;;;;1.90;1.40;;;;;;;-145.69;100.00;52636.50;5113421;28;20193;-79
2022/11/14 09:09:00;;;;;;;1.73;1.40;;;;;;;-145.69;100.00;52618.66;5113444;28;20194;-79
2022/11/14 09:11:27;;;;;;;3.00;1.60;;;;;;;-145.69;100.00;52567.16;5113270;28;20193;-79
2022/11/14 09:13:54;;;;;;;2.00;1.40;;;;;;;-145.69;100.00;52614.72;5113220;28;20198;-80
2022/11/14 09:16:21;;;;;;;6.13;3.20;;;;;;;-145.69;100.00;52616.69;5113574;28;20197;-80
2022/11/14 09:18:47;;;;;;;7.63;2.83;;;;;;;-145.69;100.00;52622.63;5113266;28;20667;-78
2022/11/14 09:21:14;;;;;;;1.83;1.30;;;;;;;-145.69;100.00;52600.84;5113160;28;20225;-79
2022/11/14 09:23:40;;;;;;;1.30;1.20;;;;;;;-145.69;100.00;52602.81;5113191;28;20324;-79
2022/11/14 09:26:09;;;;;;;2.20;1.50;;;;;;;-145.69;100.00;52598.84;5113210;28;20204;-79
2022/11/14 09:28:37;;;;;;;1.90;1.27;;;;;;;-145.69;100.00;52614.72;5113074;28;20201;-78
2022/11/14 09:31:06;;;;;;;2.30;1.37;;;;;;;-145.69;100.00;52606.78;5113035;28;20663;-79
2022/11/14 09:33:33;;;;;;;2.90;1.20;;;;;;;-145.69;100.00;52630.53;5113428;28;20205;-79
2022/11/14 09:36:00;;;;;;;2.27;1.47;;;;;;;-145.69;100.00;52604.81;5116756;28;20233;-79
2022/11/14 09:38:27;;;;;;;3.03;1.90;;;;;;;-145.69;100.00;52626.59;5117778;28;20193;-81
2022/11/14 09:41:04;;;;;;;1.77;1.30;;;;;;;-145.69;100.00;52575.09;5118038;28;20201;-82
2022/11/14 09:43:53;;;;;;;1.43;1.10;;;;;;;-145.69;100.00;52590.94;5118089;28;20224;-79
2022/11/14 09:46:25;;;;;;;2.43;1.30;;;;;;;-145.69;100.00;52626.59;5117346;28;20208;-79
2022/11/14 09:48:53;;;;;;;2.93;1.20;;;;;;;-145.69;100.00;52622.63;5117318;28;20240;-79
2022/11/14 09:51:22;;;;;;;3.00;1.20;;;;;;;-145.69;100.00;52606.78;5117167;28;20197;-78
2022/11/14 09:53:55;;;;;;;1.53;1.10;;;;;;;-145.69;100.00;52606.78;5117226;28;20194;-81
2022/11/14 09:56:24;;;;;;;1.23;1.10;;;;;;;-145.69;100.00;52618.66;5098398;28;20677;-81
2022/11/14 09:59:00;;;;;;;1.80;1.30;;;;;;;-145.69;100.00;52610.75;5096542;28;20194;-79
2022/11/14 10:01:45;;;;;;;6.27;1.53;;;;;;;-145.69;100.00;52608.75;5096532;28;20205;-81
2022/11/14 10:04:22;;;;;;;1.73;1.10;;;;;;;-145.69;100.00;52569.16;5096527;28;20699;-81
2022/11/14 10:06:58;;;;;;;5.13;2.60;;;;;;;-145.69;100.00;52620.66;5097968;28;20232;-81
2022/11/14 10:09:39;;;;;;;2.03;1.40;;;;;;;-145.69;100.00;52626.59;5097057;28;20201;-79
2022/11/14 10:12:14;;;;;;;3.80;1.20;;;;;;;-145.69;100.00;52598.84;5096259;28;20228;-79
2022/11/14 10:14:56;;;;;;;2.57;1.63;;;;;;;-145.69;100.00;52614.72;5096378;28;20244;-78
2022/11/14 10:17:44;;;;;;;1.53;1.13;;;;;;;-145.69;100.00;52606.78;5097262;28;20198;-80
2022/11/14 10:20:19;;;;;;;1.83;1.27;;;;;;;-145.69;100.00;52622.63;5097141;28;20205;-81
2022/11/14 10:23:04;;;;;;;2.08;1.30;;;;;;;-145.69;100.00;52602.81;5096691;28;20477;-82
2022/11/14 10:25:43;;;;;;;2.20;1.30;;;;;;;-145.69;100.00;52636.50;5096840;28;20571;-81
2022/11/14 10:28:28;;;;;;;11.50;5.00;;;;;;;-145.69;100.00;52602.81;5096914;28;20209;-81
2022/11/14 10:31:06;;;;;;;2.33;1.50;;;;;;;-145.69;100.00;52622.63;5096122;28;20202;-80
2022/11/14 10:33:46;;;;;;;1.10;1.00;;;;;;;-145.69;100.00;52598.84;5096789;28;20293;-80
2022/11/14 10:36:23;;;;;;;2.00;1.50;;;;;;;-145.69;100.00;52600.84;5096669;28;20325;-79
2022/11/14 10:38:55;;;;;;;1.47;1.10;;;;;;;-145.69;100.00;52618.66;5096236;28;20575;-80
2022/11/14 10:41:26;;;;;;;2.20;1.50;;;;;;;-145.69;100.00;52583.00;5095625;28;20202;-81
2022/11/14 10:43:54;;;;;;;1.40;1.00;;;;;;;-145.69;100.00;52610.75;5095822;28;20226;-80
2022/11/14 10:46:25;;;;;;;2.00;1.13;;;;;;;-145.69;100.00;52604.81;5095050;28;20204;-80
2022/11/14 10:48:53;;;;;;;3.03;2.10;;;;;;;-145.69;100.00;52626.59;5096493;28;20201;-81
2022/11/14 10:51:26;;;;;;;3.70;1.53;;;;;;;-145.69;100.00;52616.69;5096479;28;20202;-81
2022/11/14 10:53:58;;;;;;;3.23;1.50;;;;;;;-145.69;100.00;52612.72;5096211;28;20202;-80
2022/11/14 10:56:24;;;;;;;2.17;1.40;;;;;;;-145.69;100.00;52622.63;5106006;28;20656;-80
2022/11/14 10:58:51;;;;;;;2.43;1.37;;;;;;;-145.69;100.00;52634.50;5116366;28;20739;-80
2022/11/14 11:01:36;;;;;;;2.77;1.70;;;;;;;-145.69;100.00;52630.53;5116908;27;20203;-81
2022/11/14 11:04:25;;;;;;;1.67;1.20;;;;;;;-145.69;100.00;52614.72;5115934;28;20231;-79
2022/11/14 11:06:54;;;;;;;3.00;1.50;;;;;;;-145.69;100.00;52646.41;5119980;27;20194;-80
2022/11/14 11:12:15;;;;;;;2.53;1.60;;;;;;;-145.69;100.00;52618.66;5116377;28;20197;-80
2022/11/14 11:14:43;;;;;;;2.30;1.30;;;;;;;-145.69;100.00;52579.06;5115865;28;20193;-80